createdAt,value
2017-05-22T00:00:49.898Z,12.49
2017-05-22T00:01:50.507Z,12.46
2017-05-22T00:02:51.116Z,12.43
2017-05-22T00:03:51.718Z,12.43
2017-05-22T00:04:52.332Z,12.37
2017-05-22T00:05:52.944Z,12.32
2017-05-22T00:06:53.560Z,12.31
2017-05-22T00:07:54.220Z,12.21
2017-05-22T00:08:54.822Z,12.25
2017-05-22T00:09:55.426Z,12.27
2017-05-22T00:10:56.038Z,12.25
2017-05-22T00:11:56.636Z,12.28
2017-05-22T00:12:57.250Z,12.29
2017-05-22T00:13:57.861Z,12.22
2017-05-22T00:14:58.469Z,12.19
2017-05-22T00:15:59.082Z,12.10
2017-05-22T00:16:59.687Z,12.11
2017-05-22T00:18:00.289Z,12.06
2017-05-22T00:19:00.891Z,12.01
2017-05-22T00:20:01.493Z,12.04
2017-05-22T00:21:02.090Z,11.91
2017-05-22T00:22:02.696Z,11.93
2017-05-22T00:23:03.299Z,11.93
2017-05-22T00:24:03.910Z,12.00
2017-05-22T00:25:04.514Z,12.01
2017-05-22T00:26:05.175Z,12.04
2017-05-22T00:27:05.779Z,12.01
2017-05-22T00:28:06.377Z,11.93
2017-05-22T00:29:06.981Z,11.91
2017-05-22T00:30:07.581Z,11.93
2017-05-22T00:31:08.177Z,11.88
2017-05-22T00:32:08.804Z,11.83
2017-05-22T00:33:09.443Z,11.77
2017-05-22T00:34:10.067Z,11.69
2017-05-22T00:35:10.685Z,11.67
2017-05-22T00:36:11.289Z,11.59
2017-05-22T00:37:11.892Z,11.51
2017-05-22T00:38:12.505Z,11.55
2017-05-22T00:39:13.117Z,11.62
2017-05-22T00:40:13.712Z,11.54
2017-05-22T00:41:14.321Z,11.48
2017-05-22T00:42:14.927Z,11.50
2017-05-22T00:43:15.537Z,11.52
2017-05-22T00:44:16.140Z,11.42
2017-05-22T00:45:16.754Z,11.50
2017-05-22T00:46:17.375Z,11.51
2017-05-22T00:47:17.973Z,11.51
2017-05-22T00:48:18.570Z,11.44
2017-05-22T00:49:19.175Z,11.54
2017-05-22T00:50:19.788Z,11.52
2017-05-22T00:51:20.410Z,11.37
2017-05-22T00:52:21.029Z,11.50
2017-05-22T00:53:21.625Z,11.40
2017-05-22T00:54:22.233Z,11.50
2017-05-22T00:55:22.854Z,11.44
2017-05-22T00:56:23.470Z,11.40
2017-05-22T00:57:24.088Z,11.42
2017-05-22T00:58:24.751Z,11.44
2017-05-22T00:59:25.355Z,11.44
2017-05-22T01:00:25.972Z,11.40
2017-05-22T01:01:26.579Z,11.34
2017-05-22T01:02:27.177Z,11.32
2017-05-22T01:03:27.789Z,11.42
2017-05-22T01:04:28.407Z,11.30
2017-05-22T01:05:29.019Z,11.33
2017-05-22T01:06:29.663Z,11.32
2017-05-22T01:07:30.252Z,11.26
2017-05-22T01:08:30.868Z,11.21
2017-05-22T01:09:31.470Z,11.26
2017-05-22T01:10:32.067Z,11.19
2017-05-22T01:11:32.667Z,11.26
2017-05-22T01:12:33.292Z,11.16
2017-05-22T01:13:33.870Z,11.22
2017-05-22T01:14:34.483Z,11.16
2017-05-22T01:15:35.100Z,11.21
2017-05-22T01:16:35.713Z,11.16
2017-05-22T01:17:36.332Z,11.21
2017-05-22T01:18:36.926Z,11.15
2017-05-22T01:19:37.524Z,11.19
2017-05-22T01:20:38.120Z,11.14
2017-05-22T01:21:38.730Z,11.19
2017-05-22T01:22:39.345Z,11.16
2017-05-22T01:23:39.951Z,11.15
2017-05-22T01:24:40.560Z,11.11
2017-05-22T01:25:41.171Z,11.11
2017-05-22T01:26:41.776Z,11.08
2017-05-22T01:27:42.395Z,11.07
2017-05-22T01:28:43.020Z,11.11
2017-05-22T01:29:43.638Z,11.07
2017-05-22T01:30:44.232Z,11.04
2017-05-22T01:31:44.834Z,10.97
2017-05-22T01:32:45.453Z,10.79
2017-05-22T01:33:46.055Z,10.82
2017-05-22T01:34:46.674Z,10.82
2017-05-22T01:35:47.273Z,10.79
2017-05-22T01:36:47.872Z,10.83
2017-05-22T01:37:48.488Z,10.81
2017-05-22T01:38:49.099Z,10.76
2017-05-22T01:39:49.700Z,10.67
2017-05-22T01:40:50.298Z,10.60
2017-05-22T01:41:50.908Z,10.54
2017-05-22T01:42:51.506Z,10.51
2017-05-22T01:43:52.109Z,10.61
2017-05-22T01:44:52.714Z,10.54
2017-05-22T01:45:53.327Z,10.53
2017-05-22T01:46:53.944Z,10.66
2017-05-22T01:47:54.563Z,10.53
2017-05-22T01:48:55.157Z,10.63
2017-05-22T01:49:55.773Z,10.57
2017-05-22T01:50:56.393Z,10.54
2017-05-22T01:51:56.991Z,10.49
2017-05-22T01:52:57.612Z,10.51
2017-05-22T01:53:58.228Z,10.47
2017-05-22T01:54:58.843Z,10.45
2017-05-22T01:55:59.442Z,10.45
2017-05-22T01:57:00.064Z,10.53
2017-05-22T01:58:00.672Z,10.57
2017-05-22T01:59:01.270Z,10.56
2017-05-22T02:00:01.866Z,10.45
2017-05-22T02:01:02.479Z,10.51
2017-05-22T02:02:03.098Z,10.44
2017-05-22T02:03:03.714Z,10.51
2017-05-22T02:04:04.317Z,10.38
2017-05-22T02:05:04.924Z,10.35
2017-05-22T02:06:05.527Z,10.32
2017-05-22T02:07:06.145Z,10.41
2017-05-22T02:08:06.761Z,10.37
2017-05-22T02:09:07.368Z,10.31
2017-05-22T02:10:07.978Z,10.35
2017-05-22T02:11:08.579Z,10.31
2017-05-22T02:12:09.178Z,10.32
2017-05-22T02:13:09.791Z,10.19
2017-05-22T02:14:10.401Z,10.29
2017-05-22T02:15:11.003Z,10.23
2017-05-22T02:16:11.614Z,10.17
2017-05-22T02:17:12.230Z,10.23
2017-05-22T02:18:12.823Z,10.19
2017-05-22T02:19:13.430Z,10.23
2017-05-22T02:20:14.035Z,10.26
2017-05-22T02:21:14.634Z,10.16
2017-05-22T02:22:15.231Z,10.19
2017-05-22T02:23:15.823Z,10.22
2017-05-22T02:24:16.441Z,10.19
2017-05-22T02:25:17.035Z,10.16
2017-05-22T02:26:17.646Z,10.12
2017-05-22T02:27:18.269Z,10.09
2017-05-22T02:28:18.883Z,10.04
2017-05-22T02:29:19.506Z,10.06
2017-05-22T02:30:20.099Z,10.04
2017-05-22T02:31:20.691Z,9.98
2017-05-22T02:32:21.297Z,9.95
2017-05-22T02:33:21.904Z,10.01
2017-05-22T02:34:22.507Z,10.02
2017-05-22T02:35:23.105Z,9.96
2017-05-22T02:36:23.723Z,9.88
2017-05-22T02:37:24.337Z,9.86
2017-05-22T02:38:24.930Z,9.84
2017-05-22T02:39:25.537Z,9.91
2017-05-22T02:40:26.142Z,9.80
2017-05-22T02:41:26.744Z,9.80
2017-05-22T02:42:27.362Z,9.81
2017-05-22T02:43:27.973Z,9.81
2017-05-22T02:44:28.583Z,9.81
2017-05-22T02:45:29.195Z,9.81
2017-05-22T02:46:29.792Z,9.79
2017-05-22T02:47:30.386Z,9.88
2017-05-22T02:48:30.996Z,9.81
2017-05-22T02:49:31.595Z,9.81
2017-05-22T02:50:32.190Z,9.77
2017-05-22T02:51:32.800Z,9.86
2017-05-22T02:52:33.418Z,9.77
2017-05-22T02:53:34.018Z,9.87
2017-05-22T02:54:34.634Z,9.77
2017-05-22T02:55:35.245Z,9.76
2017-05-22T02:56:35.848Z,9.84
2017-05-22T02:57:36.448Z,9.76
2017-05-22T02:58:37.056Z,9.71
2017-05-22T02:59:37.657Z,9.66
2017-05-22T03:00:38.255Z,9.71
2017-05-22T03:01:38.858Z,9.61
2017-05-22T03:02:39.459Z,9.76
2017-05-22T03:03:40.060Z,9.69
2017-05-22T03:04:40.649Z,9.65
2017-05-22T03:05:41.250Z,9.71
2017-05-22T03:06:41.869Z,9.68
2017-05-22T03:07:42.488Z,9.63
2017-05-22T03:08:43.099Z,9.69
2017-05-22T03:09:43.693Z,9.63
2017-05-22T03:10:44.301Z,9.56
2017-05-22T03:11:44.900Z,9.54
2017-05-22T03:12:45.495Z,9.58
2017-05-22T03:13:46.098Z,9.54
2017-05-22T03:14:46.731Z,9.53
2017-05-22T03:15:47.332Z,9.56
2017-05-22T03:16:47.948Z,9.48
2017-05-22T03:17:48.543Z,9.47
2017-05-22T03:18:49.149Z,9.50
2017-05-22T03:19:49.818Z,9.45
2017-05-22T03:20:50.411Z,9.50
2017-05-22T03:21:51.014Z,9.40
2017-05-22T03:22:51.632Z,9.51
2017-05-22T03:23:52.248Z,9.53
2017-05-22T03:24:52.887Z,9.53
2017-05-22T03:25:53.466Z,9.41
2017-05-22T03:26:54.063Z,9.32
2017-05-22T03:27:54.659Z,9.40
2017-05-22T03:28:55.272Z,9.43
2017-05-22T03:29:55.867Z,9.35
2017-05-22T03:30:56.476Z,9.41
2017-05-22T03:31:57.075Z,9.40
2017-05-22T03:32:57.693Z,9.29
2017-05-22T03:33:58.308Z,9.35
2017-05-22T03:34:58.915Z,9.40
2017-05-22T03:35:59.521Z,9.36
2017-05-22T03:37:00.136Z,9.44
2017-05-22T03:38:00.756Z,9.25
2017-05-22T03:39:01.354Z,9.26
2017-05-22T03:40:01.966Z,9.17
2017-05-22T03:41:02.565Z,9.22
2017-05-22T03:42:03.172Z,9.23
2017-05-22T03:43:03.770Z,9.26
2017-05-22T03:44:04.389Z,9.20
2017-05-22T03:45:05.000Z,9.20
2017-05-22T03:46:05.603Z,9.26
2017-05-22T03:47:06.222Z,9.26
2017-05-22T03:48:06.839Z,9.23
2017-05-22T03:49:07.444Z,9.25
2017-05-22T03:50:08.046Z,9.29
2017-05-22T03:51:08.643Z,9.32
2017-05-22T03:52:09.250Z,9.30
2017-05-22T03:53:09.848Z,9.33
2017-05-22T03:54:10.469Z,9.32
2017-05-22T03:55:11.077Z,9.48
2017-05-22T03:56:11.694Z,9.47
2017-05-22T03:57:12.317Z,9.54
2017-05-22T03:58:12.938Z,9.48
2017-05-22T03:59:13.535Z,9.50
2017-05-22T04:00:14.139Z,9.48
2017-05-22T04:01:14.752Z,9.45
2017-05-22T04:02:15.365Z,9.53
2017-05-22T04:03:15.973Z,9.58
2017-05-22T04:04:16.576Z,9.56
2017-05-22T04:05:17.185Z,9.65
2017-05-22T04:06:17.790Z,9.71
2017-05-22T04:07:18.410Z,9.68
2017-05-22T04:08:19.008Z,9.63
2017-05-22T04:09:19.615Z,9.66
2017-05-22T04:10:20.230Z,9.65
2017-05-22T04:11:20.834Z,9.62
2017-05-22T04:12:21.457Z,9.68
2017-05-22T04:13:22.076Z,9.68
2017-05-22T04:14:22.689Z,9.50
2017-05-22T04:15:23.290Z,9.62
2017-05-22T04:16:23.893Z,9.65
2017-05-22T04:17:24.492Z,9.69
2017-05-22T04:18:25.101Z,9.79
2017-05-22T04:19:25.703Z,9.87
2017-05-22T04:20:26.310Z,9.88
2017-05-22T04:21:26.926Z,9.96
2017-05-22T04:22:27.533Z,9.98
2017-05-22T04:23:28.142Z,10.04
2017-05-22T04:24:28.757Z,10.02
2017-05-22T04:25:29.355Z,10.08
2017-05-22T04:26:29.957Z,10.17
2017-05-22T04:27:30.565Z,10.19
2017-05-22T04:28:31.170Z,10.32
2017-05-22T04:29:31.775Z,10.35
2017-05-22T04:30:32.400Z,10.29
2017-05-22T04:31:33.019Z,10.37
2017-05-22T04:32:33.639Z,10.49
2017-05-22T04:33:34.257Z,10.58
2017-05-22T04:34:34.867Z,10.81
2017-05-22T04:35:35.485Z,11.01
2017-05-22T04:36:36.102Z,11.21
2017-05-22T04:37:36.723Z,11.21
2017-05-22T04:38:37.343Z,11.24
2017-05-22T04:39:37.962Z,11.18
2017-05-22T04:40:38.576Z,11.44
2017-05-22T04:41:39.244Z,11.76
2017-05-22T04:42:39.867Z,12.46
2017-05-22T04:43:40.492Z,13.18
2017-05-22T04:44:41.110Z,14.03
2017-05-22T04:45:41.726Z,14.66
2017-05-22T04:46:42.336Z,15.31
2017-05-22T04:47:42.949Z,15.62
2017-05-22T04:48:43.560Z,15.43
2017-05-22T04:49:44.192Z,15.10
2017-05-22T04:50:44.802Z,15.04
2017-05-22T04:51:45.428Z,15.18
2017-05-22T04:52:46.051Z,15.83
2017-05-22T04:53:46.656Z,16.46
2017-05-22T04:54:47.278Z,17.04
2017-05-22T04:55:47.887Z,17.29
2017-05-22T04:56:48.504Z,17.80
2017-05-22T04:57:49.121Z,18.23
2017-05-22T04:58:49.751Z,18.59
2017-05-22T04:59:50.365Z,18.90
2017-05-22T05:00:50.988Z,19.25
2017-05-22T05:01:51.600Z,19.58
2017-05-22T05:02:52.225Z,19.77
2017-05-22T05:03:52.849Z,19.74
2017-05-22T05:04:53.467Z,19.36
2017-05-22T05:05:54.078Z,19.47
2017-05-22T05:06:54.691Z,19.55
2017-05-22T05:07:55.312Z,19.44
2017-05-22T05:08:55.934Z,19.36
2017-05-22T05:09:56.549Z,19.59
2017-05-22T05:10:57.169Z,20.04
2017-05-22T05:11:57.804Z,20.03
2017-05-22T05:12:58.460Z,19.84
2017-05-22T05:13:59.054Z,19.64
2017-05-22T05:14:59.679Z,19.74
2017-05-22T05:16:00.314Z,19.74
2017-05-22T05:17:00.929Z,19.62
2017-05-22T05:18:01.552Z,19.33
2017-05-22T05:19:02.181Z,18.69
2017-05-22T05:20:02.801Z,18.51
2017-05-22T05:21:03.429Z,18.11
2017-05-22T05:22:04.054Z,17.92
2017-05-22T05:23:04.682Z,17.87
2017-05-22T05:24:05.297Z,17.86
2017-05-22T05:25:05.909Z,17.97
2017-05-22T05:26:06.541Z,18.11
2017-05-22T05:27:07.175Z,18.19
2017-05-22T05:28:07.807Z,18.40
2017-05-22T05:29:08.432Z,18.51
2017-05-22T05:30:09.072Z,18.47
2017-05-22T05:31:09.700Z,18.40
2017-05-22T05:32:10.319Z,18.66
2017-05-22T05:33:10.932Z,18.40
2017-05-22T05:34:11.561Z,18.14
2017-05-22T05:35:12.197Z,17.59
2017-05-22T05:36:12.819Z,17.60
2017-05-22T05:37:13.449Z,17.95
2017-05-22T05:38:14.072Z,18.55
2017-05-22T05:39:14.691Z,18.96
2017-05-22T05:40:15.329Z,19.04
2017-05-22T05:41:16.003Z,19.34
2017-05-22T05:42:16.641Z,19.44
2017-05-22T05:43:17.281Z,19.49
2017-05-22T05:44:17.943Z,19.76
2017-05-22T05:45:18.554Z,19.81
2017-05-22T05:46:19.185Z,19.89
2017-05-22T05:47:19.824Z,20.03
2017-05-22T05:48:20.444Z,20.16
2017-05-22T05:49:21.084Z,20.35
2017-05-22T05:50:21.703Z,20.54
2017-05-22T05:51:22.328Z,20.84
2017-05-22T05:52:22.949Z,20.90
2017-05-22T05:53:23.575Z,20.78
2017-05-22T05:54:24.206Z,20.80
2017-05-22T05:55:24.836Z,20.95
2017-05-22T05:56:25.457Z,21.05
2017-05-22T05:57:26.073Z,20.80
2017-05-22T05:58:26.707Z,20.78
2017-05-22T05:59:27.337Z,20.84
2017-05-22T06:00:27.953Z,20.73
2017-05-22T06:01:28.587Z,20.77
2017-05-22T06:02:29.207Z,20.70
2017-05-22T06:03:29.874Z,20.72
2017-05-22T06:04:30.503Z,20.65
2017-05-22T06:05:31.129Z,20.60
2017-05-22T06:06:31.756Z,20.34
2017-05-22T06:07:32.390Z,20.16
2017-05-22T06:08:33.017Z,20.09
2017-05-22T06:09:33.635Z,20.70
2017-05-22T06:10:34.263Z,21.09
2017-05-22T06:11:34.879Z,21.22
2017-05-22T06:12:35.504Z,21.10
2017-05-22T06:13:36.139Z,21.03
2017-05-22T06:14:36.811Z,21.37
2017-05-22T06:15:37.450Z,21.61
2017-05-22T06:16:38.074Z,21.79
2017-05-22T06:17:38.705Z,21.70
2017-05-22T06:18:39.327Z,21.64
2017-05-22T06:19:40.000Z,21.64
2017-05-22T06:20:40.618Z,21.83
2017-05-22T06:21:41.244Z,22.01
2017-05-22T06:22:41.881Z,22.44
2017-05-22T06:23:42.526Z,22.38
2017-05-22T06:24:43.163Z,22.36
2017-05-22T06:25:43.793Z,22.36
2017-05-22T06:26:44.454Z,22.28
2017-05-22T06:27:45.179Z,22.48
2017-05-22T06:28:45.807Z,22.54
2017-05-22T06:29:46.446Z,22.51
2017-05-22T06:30:47.081Z,22.68
2017-05-22T06:31:47.712Z,22.24
2017-05-22T06:32:48.391Z,22.47
2017-05-22T06:33:49.009Z,22.26
2017-05-22T06:34:49.628Z,22.28
2017-05-22T06:35:50.270Z,22.20
2017-05-22T06:36:50.915Z,22.24
2017-05-22T06:37:51.557Z,22.14
2017-05-22T06:38:52.182Z,22.23
2017-05-22T06:39:52.814Z,22.07
2017-05-22T06:40:53.461Z,21.55
2017-05-22T06:41:54.097Z,22.11
2017-05-22T06:42:54.738Z,22.55
2017-05-22T06:43:55.377Z,21.91
2017-05-22T06:44:56.007Z,22.21
2017-05-22T06:45:56.641Z,22.66
2017-05-22T06:46:57.283Z,22.50
2017-05-22T06:47:57.918Z,22.40
2017-05-22T06:48:58.541Z,22.62
2017-05-22T06:49:59.166Z,22.70
2017-05-22T06:50:59.801Z,22.44
2017-05-22T06:52:00.437Z,22.21
2017-05-22T06:53:01.079Z,22.28
2017-05-22T06:54:01.720Z,22.23
2017-05-22T06:55:02.366Z,22.47
2017-05-22T06:56:03.008Z,22.28
2017-05-22T06:57:03.650Z,22.38
2017-05-22T06:58:04.268Z,22.68
2017-05-22T06:59:04.904Z,22.76
2017-05-22T07:00:05.558Z,22.78
2017-05-22T07:01:06.181Z,22.75
2017-05-22T07:02:06.822Z,22.50
2017-05-22T07:03:07.459Z,22.54
2017-05-22T07:04:08.084Z,22.70
2017-05-22T07:05:08.719Z,22.83
2017-05-22T07:06:09.410Z,22.87
2017-05-22T07:07:10.025Z,22.81
2017-05-22T07:08:10.659Z,22.99
2017-05-22T07:09:11.294Z,23.27
2017-05-22T07:10:11.929Z,23.50
2017-05-22T07:11:12.566Z,23.18
2017-05-22T07:12:13.198Z,23.25
2017-05-22T07:13:13.817Z,23.34
2017-05-22T07:14:14.435Z,23.28
2017-05-22T07:15:15.073Z,23.02
2017-05-22T07:16:15.752Z,23.02
2017-05-22T07:17:16.394Z,23.16
2017-05-22T07:18:17.030Z,23.23
2017-05-22T07:19:17.660Z,23.23
2017-05-22T07:20:18.293Z,23.27
2017-05-22T07:21:18.988Z,22.97
2017-05-22T07:22:19.627Z,23.25
2017-05-22T07:23:20.261Z,23.50
2017-05-22T07:24:20.892Z,23.65
2017-05-22T07:25:21.521Z,24.14
2017-05-22T07:26:22.149Z,23.98
2017-05-22T07:27:22.785Z,23.87
2017-05-22T07:28:23.421Z,23.81
2017-05-22T07:29:24.056Z,23.99
2017-05-22T07:30:24.693Z,23.83
2017-05-22T07:31:25.323Z,23.95
2017-05-22T07:32:25.948Z,23.77
2017-05-22T07:33:26.577Z,23.91
2017-05-22T07:34:27.207Z,24.32
2017-05-22T07:35:27.836Z,24.60
2017-05-22T07:36:28.661Z,24.56
2017-05-22T07:37:29.279Z,24.96
2017-05-22T07:38:29.910Z,25.16
2017-05-22T07:39:30.545Z,24.96
2017-05-22T07:40:31.180Z,25.02
2017-05-22T07:41:31.810Z,24.68
2017-05-22T07:42:32.433Z,24.45
2017-05-22T07:43:33.056Z,24.33
2017-05-22T07:44:33.678Z,23.96
2017-05-22T07:45:34.315Z,24.20
2017-05-22T07:46:34.943Z,24.41
2017-05-22T07:47:35.567Z,24.69
2017-05-22T07:48:36.203Z,24.46
2017-05-22T07:49:36.829Z,24.42
2017-05-22T07:50:37.470Z,24.06
2017-05-22T07:51:38.088Z,24.14
2017-05-22T07:52:38.722Z,24.46
2017-05-22T07:53:39.342Z,24.56
2017-05-22T07:54:39.961Z,24.91
2017-05-22T07:55:40.600Z,25.16
2017-05-22T07:56:41.234Z,24.83
2017-05-22T07:57:41.868Z,25.21
2017-05-22T07:58:42.507Z,25.50
2017-05-22T07:59:43.126Z,25.75
2017-05-22T08:00:43.762Z,25.68
2017-05-22T08:01:44.401Z,25.91
2017-05-22T08:02:45.037Z,26.03
2017-05-22T08:03:45.673Z,26.05
2017-05-22T08:04:46.317Z,26.16
2017-05-22T08:05:46.945Z,25.95
2017-05-22T08:06:47.579Z,26.06
2017-05-22T08:07:48.203Z,25.80
2017-05-22T08:08:48.845Z,25.73
2017-05-22T08:09:49.468Z,25.91
2017-05-22T08:10:50.112Z,26.08
2017-05-22T08:11:50.747Z,26.10
2017-05-22T08:12:51.374Z,25.88
2017-05-22T08:13:52.012Z,26.08
2017-05-22T08:14:52.652Z,26.02
2017-05-22T08:15:53.277Z,25.80
2017-05-22T08:16:53.926Z,25.76
2017-05-22T08:17:54.567Z,26.06
2017-05-22T08:18:55.197Z,26.16
2017-05-22T08:19:55.840Z,25.95
2017-05-22T08:20:56.459Z,25.95
2017-05-22T08:21:57.105Z,25.95
2017-05-22T08:22:57.743Z,25.99
2017-05-22T08:23:58.378Z,25.75
2017-05-22T08:24:59.018Z,25.61
2017-05-22T08:25:59.651Z,25.76
2017-05-22T08:27:00.286Z,25.84
2017-05-22T08:28:00.927Z,25.88
2017-05-22T08:29:01.544Z,25.95
2017-05-22T08:30:02.168Z,26.12
2017-05-22T08:31:02.805Z,25.80
2017-05-22T08:32:03.439Z,25.88
2017-05-22T08:33:04.061Z,26.21
2017-05-22T08:34:04.680Z,26.13
2017-05-22T08:35:05.309Z,25.75
2017-05-22T08:36:05.952Z,25.69
2017-05-22T08:37:06.589Z,25.75
2017-05-22T08:38:07.210Z,25.86
2017-05-22T08:39:07.840Z,26.03
2017-05-22T08:40:08.467Z,26.36
2017-05-22T08:41:09.087Z,26.71
2017-05-22T08:42:09.720Z,26.50
2017-05-22T08:43:10.351Z,26.25
2017-05-22T08:44:10.986Z,26.37
2017-05-22T08:45:11.624Z,26.66
2017-05-22T08:46:12.265Z,26.63
2017-05-22T08:47:12.957Z,26.85
2017-05-22T08:48:13.583Z,26.91
2017-05-22T08:49:14.215Z,26.88
2017-05-22T08:50:14.842Z,26.55
2017-05-22T08:51:15.465Z,26.25
2017-05-22T08:52:16.107Z,26.02
2017-05-22T08:53:16.747Z,26.26
2017-05-22T08:54:17.373Z,26.34
2017-05-22T08:55:18.010Z,26.28
2017-05-22T08:56:18.631Z,26.32
2017-05-22T08:57:19.258Z,26.62
2017-05-22T08:58:19.892Z,26.74
2017-05-22T08:59:20.506Z,26.87
2017-05-22T09:00:21.151Z,26.63
2017-05-22T09:01:21.790Z,26.48
2017-05-22T09:02:22.429Z,26.63
2017-05-22T09:03:23.047Z,26.83
2017-05-22T09:04:23.680Z,26.84
2017-05-22T09:05:24.316Z,26.98
2017-05-22T09:06:24.948Z,27.02
2017-05-22T09:07:25.568Z,27.20
2017-05-22T09:08:26.195Z,27.23
2017-05-22T09:09:26.830Z,27.42
2017-05-22T09:10:27.489Z,27.47
2017-05-22T09:11:28.122Z,27.61
2017-05-22T09:12:28.744Z,27.71
2017-05-22T09:13:29.402Z,27.86
2017-05-22T09:14:30.083Z,28.03
2017-05-22T09:15:30.739Z,28.36
2017-05-22T09:16:31.364Z,28.40
2017-05-22T09:17:32.006Z,28.05
2017-05-22T09:18:32.648Z,27.78
2017-05-22T09:19:33.338Z,27.58
2017-05-22T09:20:33.976Z,27.61
2017-05-22T09:21:34.612Z,27.59
2017-05-22T09:22:35.256Z,27.70
2017-05-22T09:23:35.881Z,27.67
2017-05-22T09:24:36.573Z,27.52
2017-05-22T09:25:37.191Z,27.59
2017-05-22T09:26:37.828Z,27.39
2017-05-22T09:27:38.468Z,27.39
2017-05-22T09:28:39.100Z,27.11
2017-05-22T09:29:39.743Z,27.21
2017-05-22T09:30:40.383Z,26.96
2017-05-22T09:31:41.026Z,27.18
2017-05-22T09:32:41.651Z,27.45
2017-05-22T09:33:42.276Z,27.25
2017-05-22T09:34:42.910Z,27.48
2017-05-22T09:35:43.532Z,27.43
2017-05-22T09:36:44.164Z,27.33
2017-05-22T09:37:44.781Z,27.13
2017-05-22T09:38:45.411Z,27.23
2017-05-22T09:39:46.044Z,27.50
2017-05-22T09:40:46.682Z,27.24
2017-05-22T09:41:47.309Z,27.02
2017-05-22T09:42:47.948Z,26.93
2017-05-22T09:43:48.568Z,26.84
2017-05-22T09:44:49.194Z,26.71
2017-05-22T09:45:49.834Z,26.74
2017-05-22T09:46:50.463Z,26.77
2017-05-22T09:47:51.084Z,27.06
2017-05-22T09:48:51.713Z,27.10
2017-05-22T09:49:52.348Z,27.11
2017-05-22T09:50:52.980Z,26.93
2017-05-22T09:51:53.605Z,27.08
2017-05-22T09:52:54.233Z,26.81
2017-05-22T09:53:54.867Z,26.58
2017-05-22T09:54:55.495Z,26.74
2017-05-22T09:55:56.115Z,26.87
2017-05-22T09:56:56.734Z,27.23
2017-05-22T09:57:57.364Z,27.48
2017-05-22T09:58:57.999Z,27.15
2017-05-22T09:59:58.640Z,27.00
2017-05-22T10:00:59.271Z,27.05
2017-05-22T10:01:59.903Z,26.96
2017-05-22T10:03:00.526Z,26.85
2017-05-22T10:04:01.153Z,26.77
2017-05-22T10:05:01.783Z,26.91
2017-05-22T10:06:02.411Z,26.99
2017-05-22T10:07:03.055Z,27.15
2017-05-22T10:08:03.736Z,27.25
2017-05-22T10:09:04.367Z,27.47
2017-05-22T10:10:04.991Z,27.13
2017-05-22T10:11:05.630Z,27.33
2017-05-22T10:12:06.269Z,27.00
2017-05-22T10:13:06.902Z,26.77
2017-05-22T10:14:07.538Z,26.95
2017-05-22T10:15:08.158Z,26.96
2017-05-22T10:16:08.788Z,26.87
2017-05-22T10:17:09.412Z,26.80
2017-05-22T10:18:10.032Z,26.92
2017-05-22T10:19:10.659Z,27.13
2017-05-22T10:20:11.279Z,27.42
2017-05-22T10:21:11.909Z,27.28
2017-05-22T10:22:12.546Z,27.03
2017-05-22T10:23:13.184Z,26.99
2017-05-22T10:24:13.812Z,26.87
2017-05-22T10:25:14.438Z,26.95
2017-05-22T10:26:15.085Z,26.99
2017-05-22T10:27:15.728Z,27.25
2017-05-22T10:28:16.424Z,27.20
2017-05-22T10:29:17.039Z,27.13
2017-05-22T10:30:17.678Z,27.08
2017-05-22T10:31:18.317Z,27.17
2017-05-22T10:32:18.935Z,27.24
2017-05-22T10:33:19.559Z,27.35
2017-05-22T10:34:20.194Z,27.15
2017-05-22T10:35:20.823Z,27.00
2017-05-22T10:36:21.459Z,26.93
2017-05-22T10:37:22.085Z,27.15
2017-05-22T10:38:22.725Z,27.20
2017-05-22T10:39:23.351Z,26.96
2017-05-22T10:40:23.996Z,26.91
2017-05-22T10:41:24.634Z,27.02
2017-05-22T10:42:25.318Z,27.23
2017-05-22T10:43:25.937Z,27.39
2017-05-22T10:44:26.558Z,27.62
2017-05-22T10:45:27.187Z,27.58
2017-05-22T10:46:27.819Z,27.76
2017-05-22T10:47:28.447Z,28.03
2017-05-22T10:48:29.070Z,28.27
2017-05-22T10:49:29.690Z,28.26
2017-05-22T10:50:30.323Z,28.07
2017-05-22T10:51:30.965Z,27.81
2017-05-22T10:52:31.599Z,28.25
2017-05-22T10:53:32.225Z,28.38
2017-05-22T10:54:32.865Z,28.42
2017-05-22T10:55:33.501Z,27.88
2017-05-22T10:56:34.147Z,27.98
2017-05-22T10:57:34.840Z,27.96
2017-05-22T10:58:35.481Z,28.18
2017-05-22T10:59:36.100Z,28.44
2017-05-22T11:00:36.740Z,28.78
2017-05-22T11:01:37.359Z,28.94
2017-05-22T11:02:37.984Z,29.08
2017-05-22T11:03:38.618Z,28.75
2017-05-22T11:04:39.236Z,28.59
2017-05-22T11:05:39.863Z,28.27
2017-05-22T11:06:40.486Z,28.10
2017-05-22T11:07:41.108Z,27.90
2017-05-22T11:08:41.778Z,27.74
2017-05-22T11:09:42.415Z,28.25
2017-05-22T11:10:43.059Z,28.44
2017-05-22T11:11:43.697Z,28.41
2017-05-22T11:12:44.334Z,28.23
2017-05-22T11:13:44.973Z,28.33
2017-05-22T11:14:45.620Z,28.44
2017-05-22T11:15:46.264Z,28.33
2017-05-22T11:16:46.881Z,28.84
2017-05-22T11:17:47.567Z,29.22
2017-05-22T11:18:48.191Z,29.29
2017-05-22T11:19:48.832Z,29.44
2017-05-22T11:20:49.675Z,29.32
2017-05-22T11:21:50.323Z,29.44
2017-05-22T11:22:50.969Z,29.64
2017-05-22T11:23:51.597Z,30.01
2017-05-22T11:24:52.235Z,30.08
2017-05-22T11:25:52.856Z,30.15
2017-05-22T11:26:53.484Z,30.51
2017-05-22T11:27:54.118Z,30.03
2017-05-22T11:28:54.761Z,29.44
2017-05-22T11:29:55.407Z,29.23
2017-05-22T11:30:56.022Z,28.78
2017-05-22T11:31:56.648Z,28.91
2017-05-22T11:32:57.290Z,29.26
2017-05-22T11:33:57.909Z,29.53
2017-05-22T11:34:58.536Z,29.67
2017-05-22T11:35:59.169Z,29.62
2017-05-22T11:36:59.799Z,29.52
2017-05-22T11:38:00.431Z,28.91
2017-05-22T11:39:01.066Z,28.77
2017-05-22T11:40:01.691Z,28.65
2017-05-22T11:41:02.313Z,28.33
2017-05-22T11:42:02.991Z,28.62
2017-05-22T11:43:03.640Z,29.16
2017-05-22T11:44:04.258Z,29.17
2017-05-22T11:45:04.889Z,29.32
2017-05-22T11:46:05.523Z,29.37
2017-05-22T11:47:06.154Z,29.37
2017-05-22T11:48:06.807Z,29.48
2017-05-22T11:49:07.433Z,29.74
2017-05-22T11:50:08.074Z,30.03
2017-05-22T11:51:08.920Z,30.15
2017-05-22T11:52:09.556Z,30.34
2017-05-22T11:53:10.183Z,30.51
2017-05-22T11:54:10.803Z,30.24
2017-05-22T11:55:11.422Z,29.67
2017-05-22T11:56:12.050Z,29.39
2017-05-22T11:57:12.673Z,29.30
2017-05-22T11:58:13.312Z,29.39
2017-05-22T11:59:13.946Z,29.71
2017-05-22T12:00:14.577Z,29.81
2017-05-22T12:01:15.233Z,29.75
2017-05-22T12:02:15.875Z,29.89
2017-05-22T12:03:16.540Z,29.89
2017-05-22T12:04:17.201Z,29.72
2017-05-22T12:05:17.881Z,29.60
2017-05-22T12:06:18.499Z,29.69
2017-05-22T12:07:19.120Z,29.74
2017-05-22T12:08:19.756Z,29.62
2017-05-22T12:09:20.388Z,29.64
2017-05-22T12:10:21.002Z,29.23
2017-05-22T12:11:21.629Z,29.34
2017-05-22T12:12:22.271Z,29.53
2017-05-22T12:13:22.907Z,29.57
2017-05-22T12:14:23.541Z,29.89
2017-05-22T12:15:24.184Z,29.67
2017-05-22T12:16:24.827Z,29.64
2017-05-22T12:17:25.470Z,30.12
2017-05-22T12:18:26.107Z,30.03
2017-05-22T12:19:26.733Z,29.35
2017-05-22T12:20:27.355Z,29.23
2017-05-22T12:21:27.987Z,29.17
2017-05-22T12:22:28.613Z,29.10
2017-05-22T12:23:29.240Z,28.96
2017-05-22T12:24:29.875Z,28.65
2017-05-22T12:25:30.505Z,28.89
2017-05-22T12:26:31.140Z,29.19
2017-05-22T12:27:31.772Z,29.87
2017-05-22T12:28:32.409Z,30.59
2017-05-22T12:29:33.117Z,30.40
2017-05-22T12:30:33.741Z,30.13
2017-05-22T12:31:34.382Z,30.09
2017-05-22T12:32:35.017Z,30.08
2017-05-22T12:33:35.651Z,29.81
2017-05-22T12:34:36.274Z,29.64
2017-05-22T12:35:36.926Z,29.64
2017-05-22T12:36:37.540Z,29.64
2017-05-22T12:37:38.181Z,30.00
2017-05-22T12:38:38.815Z,30.18
2017-05-22T12:39:39.441Z,30.30
2017-05-22T12:40:40.063Z,30.59
2017-05-22T12:41:40.697Z,30.37
2017-05-22T12:42:41.334Z,30.33
2017-05-22T12:43:41.962Z,30.47
2017-05-22T12:44:42.599Z,30.27
2017-05-22T12:45:43.235Z,30.64
2017-05-22T12:46:43.863Z,30.97
2017-05-22T12:47:44.489Z,31.08
2017-05-22T12:48:45.126Z,30.75
2017-05-22T12:49:45.761Z,30.73
2017-05-22T12:50:46.388Z,30.44
2017-05-22T12:51:47.036Z,30.57
2017-05-22T12:52:47.671Z,30.71
2017-05-22T12:53:48.315Z,30.91
2017-05-22T12:54:49.019Z,30.93
2017-05-22T12:55:49.647Z,30.71
2017-05-22T12:56:50.275Z,30.84
2017-05-22T12:57:50.918Z,30.86
2017-05-22T12:58:51.571Z,30.99
2017-05-22T12:59:52.222Z,30.83
2017-05-22T13:00:52.843Z,30.86
2017-05-22T13:01:53.483Z,30.73
2017-05-22T13:02:54.129Z,31.13
2017-05-22T13:03:54.764Z,31.31
2017-05-22T13:04:55.400Z,31.61